Time;durP1;ratioP1;P1;durP2;ratioP2;P2;SDS_P1;SDS_P2;PMS_P1;PMS_P2;Temp;Humidity;BMP_temperature;BMP_pressure;BME280_temperature;BME280_humidity;BME280_pressure;Samples;Min_cycle;Max_cycle;Signal;HPM_P1;HPM_P2
2022/03/18 00:00:25;;;;;;;2.10;1.90;;;;;;;;;;5084403;28;20213;-68
2022/03/18 00:03:02;;;;;;;2.67;1.73;;;;;;;;;;5078154;28;20207;-68
2022/03/18 00:05:36;;;;;;;2.03;1.70;;;;;;;;;;5071070;28;20201;-68
2022/03/18 00:08:10;;;;;;;2.63;2.33;;;;;;;;;;5078141;28;20197;-68
2022/03/18 00:10:44;;;;;;;2.47;2.07;;;;;;;;;;5079057;28;20407;-67
2022/03/18 00:13:18;;;;;;;2.20;2.00;;;;;;;;;;5089122;28;20213;-68
2022/03/18 00:15:47;;;;;;;3.37;2.07;;;;;;;;;;5088252;28;20197;-68
2022/03/18 00:18:18;;;;;;;2.30;1.77;;;;;;;;;;5088483;28;20196;-67
2022/03/18 00:20:51;;;;;;;2.40;1.97;;;;;;;;;;5081482;28;20189;-67
2022/03/18 00:23:22;;;;;;;2.80;2.13;;;;;;;;;;5082370;28;20571;-68
2022/03/18 00:25:54;;;;;;;2.30;2.00;;;;;;;;;;5087315;28;20201;-67
2022/03/18 00:28:25;;;;;;;2.17;2.00;;;;;;;;;;5074253;28;20181;-69
2022/03/18 00:31:08;;;;;;;2.47;2.27;;;;;;;;;;5087694;28;20297;-68
2022/03/18 00:33:42;;;;;;;2.37;1.90;;;;;;;;;;5087305;28;20205;-68
2022/03/18 00:36:13;;;;;;;2.87;2.37;;;;;;;;;;5084654;28;20197;-67
2022/03/18 00:38:44;;;;;;;2.83;2.40;;;;;;;;;;5085303;28;20292;-68
2022/03/18 00:41:18;;;;;;;3.67;2.53;;;;;;;;;;5087623;28;20193;-68
2022/03/18 00:43:50;;;;;;;2.63;1.93;;;;;;;;;;5087631;28;20203;-68
2022/03/18 00:46:24;;;;;;;2.50;2.07;;;;;;;;;;5086164;28;20184;-68
2022/03/18 00:54:32;;;;;;;2.70;2.10;;;;;;;;;;5084383;28;20186;-67
2022/03/18 00:57:05;;;;;;;2.10;1.90;;;;;;;;;;5086731;28;20185;-69
2022/03/18 00:59:36;;;;;;;2.13;1.83;;;;;;;;;;5083016;28;20209;-68
2022/03/18 01:02:06;;;;;;;2.40;1.67;;;;;;;;;;5086487;28;20697;-68
2022/03/18 01:04:38;;;;;;;3.23;2.27;;;;;;;;;;5085597;28;20641;-67
2022/03/18 01:07:07;;;;;;;4.20;1.93;;;;;;;;;;5065591;28;20194;-68
2022/03/18 01:09:38;;;;;;;3.03;2.30;;;;;;;;;;5080631;28;20299;-68
2022/03/18 01:12:08;;;;;;;1.87;1.67;;;;;;;;;;5077138;28;20229;-68
2022/03/18 01:14:39;;;;;;;2.17;1.97;;;;;;;;;;5084755;28;20511;-68
2022/03/18 01:17:09;;;;;;;2.53;2.00;;;;;;;;;;5086964;28;20204;-68
2022/03/18 01:19:41;;;;;;;3.70;2.10;;;;;;;;;;5087522;28;20697;-67
2022/03/18 01:22:13;;;;;;;2.77;2.00;;;;;;;;;;5070070;28;20192;-67
2022/03/18 01:24:44;;;;;;;2.23;1.80;;;;;;;;;;5084038;28;20285;-68
2022/03/18 01:27:17;;;;;;;3.50;1.60;;;;;;;;;;5091306;28;20205;-67
2022/03/18 01:29:48;;;;;;;1.83;1.73;;;;;;;;;;5090718;28;20197;-68
2022/03/18 01:32:18;;;;;;;2.23;1.83;;;;;;;;;;5090508;28;20886;-69
2022/03/18 01:34:46;;;;;;;1.80;1.60;;;;;;;;;;5089552;28;20193;-68
2022/03/18 01:37:19;;;;;;;2.60;1.90;;;;;;;;;;5090537;28;20200;-67
2022/03/18 01:39:56;;;;;;;2.23;2.00;;;;;;;;;;5090107;28;20233;-69
2022/03/18 01:42:41;;;;;;;4.50;2.33;;;;;;;;;;5087570;28;20221;-68
2022/03/18 01:45:13;;;;;;;2.77;2.37;;;;;;;;;;5074573;28;20198;-68
2022/03/18 01:47:47;;;;;;;2.50;1.80;;;;;;;;;;5074385;28;20223;-68
2022/03/18 01:50:22;;;;;;;2.50;1.70;;;;;;;;;;5088918;28;20197;-68
2022/03/18 01:52:50;;;;;;;2.63;1.60;;;;;;;;;;5090227;28;20217;-68
2022/03/18 01:55:22;;;;;;;2.77;1.73;;;;;;;;;;5082228;28;20205;-68
2022/03/18 01:57:54;;;;;;;2.93;1.63;;;;;;;;;;5068723;28;20197;-67
2022/03/18 02:00:27;;;;;;;2.47;2.00;;;;;;;;;;5085813;28;20209;-67
2022/03/18 02:02:57;;;;;;;1.70;1.60;;;;;;;;;;5091467;28;20196;-69
2022/03/18 02:05:31;;;;;;;2.47;1.93;;;;;;;;;;5073985;28;20196;-69
2022/03/18 02:08:07;;;;;;;2.13;1.70;;;;;;;;;;5090006;28;20196;-68
2022/03/18 02:10:38;;;;;;;2.13;1.63;;;;;;;;;;5080514;28;20282;-68
2022/03/18 02:13:13;;;;;;;1.90;1.80;;;;;;;;;;5089415;28;20335;-69
2022/03/18 02:15:46;;;;;;;2.33;1.93;;;;;;;;;;5089781;28;20196;-69
2022/03/18 02:18:15;;;;;;;2.83;2.23;;;;;;;;;;5072554;28;20193;-68
2022/03/18 02:20:46;;;;;;;2.10;2.00;;;;;;;;;;5085892;28;20724;-68
2022/03/18 02:23:21;;;;;;;1.83;1.60;;;;;;;;;;5087350;28;20220;-67
2022/03/18 02:25:51;;;;;;;2.07;1.80;;;;;;;;;;5072961;28;20196;-69
2022/03/18 02:28:21;;;;;;;2.43;1.90;;;;;;;;;;5087779;28;20266;-68
2022/03/18 02:30:50;;;;;;;2.23;1.80;;;;;;;;;;5089737;28;20197;-68
2022/03/18 02:33:21;;;;;;;2.27;1.60;;;;;;;;;;5089844;28;20217;-68
2022/03/18 02:35:56;;;;;;;2.60;1.83;;;;;;;;;;5084689;28;20209;-68
2022/03/18 02:38:27;;;;;;;2.83;1.77;;;;;;;;;;5099595;28;20203;-68
2022/03/18 02:40:56;;;;;;;2.20;1.80;;;;;;;;;;5088171;28;20255;-68
2022/03/18 02:43:28;;;;;;;2.90;1.83;;;;;;;;;;5089552;28;20777;-68
2022/03/18 02:45:56;;;;;;;2.30;1.93;;;;;;;;;;5070127;28;20205;-68
2022/03/18 02:48:29;;;;;;;1.70;1.60;;;;;;;;;;5071017;28;20239;-69
2022/03/18 02:51:01;;;;;;;2.67;2.23;;;;;;;;;;5069888;28;20202;-68
2022/03/18 02:53:33;;;;;;;2.13;1.80;;;;;;;;;;5067766;28;20232;-68
2022/03/18 02:56:07;;;;;;;2.93;1.73;;;;;;;;;;5074269;28;20197;-68
2022/03/18 02:58:46;;;;;;;2.23;1.70;;;;;;;;;;5054123;28;20197;-68
2022/03/18 03:01:17;;;;;;;2.97;1.97;;;;;;;;;;5051866;28;20206;-68
2022/03/18 03:03:49;;;;;;;2.23;1.67;;;;;;;;;;5067364;28;20209;-67
2022/03/18 03:09:21;;;;;;;2.40;1.80;;;;;;;;;;5049398;28;20217;-69
2022/03/18 03:11:51;;;;;;;3.83;2.03;;;;;;;;;;5074937;28;20698;-68
2022/03/18 03:14:24;;;;;;;2.20;1.90;;;;;;;;;;5069212;28;20240;-68
2022/03/18 03:16:56;;;;;;;2.57;1.80;;;;;;;;;;5051055;28;20255;-67
2022/03/18 03:19:25;;;;;;;2.87;1.93;;;;;;;;;;5103926;28;20197;-68
2022/03/18 03:21:59;;;;;;;2.03;1.77;;;;;;;;;;5058908;28;20181;-67
2022/03/18 03:24:30;;;;;;;1.90;1.70;;;;;;;;;;5074674;28;20209;-68
2022/03/18 03:27:00;;;;;;;1.83;1.60;;;;;;;;;;5067020;28;20214;-67
2022/03/18 03:29:29;;;;;;;1.83;1.50;;;;;;;;;;5082086;28;20193;-67
2022/03/18 03:31:57;;;;;;;2.97;1.73;;;;;;;;;;5062841;28;20201;-68
2022/03/18 03:34:29;;;;;;;2.40;2.17;;;;;;;;;;5063370;28;20627;-68
2022/03/18 03:37:02;;;;;;;2.27;2.03;;;;;;;;;;5052775;28;20194;-68
2022/03/18 03:39:32;;;;;;;1.97;1.70;;;;;;;;;;5067760;28;20233;-67
2022/03/18 03:42:04;;;;;;;2.23;1.83;;;;;;;;;;5074536;28;20206;-67
2022/03/18 03:44:35;;;;;;;3.20;2.53;;;;;;;;;;5076836;28;20213;-67
2022/03/18 03:47:12;;;;;;;1.93;1.80;;;;;;;;;;5077553;28;20204;-68
2022/03/18 03:49:45;;;;;;;2.10;1.83;;;;;;;;;;5076546;28;20201;-68
2022/03/18 03:52:16;;;;;;;3.20;2.00;;;;;;;;;;5068557;28;20701;-68
2022/03/18 03:54:46;;;;;;;2.03;1.83;;;;;;;;;;5070542;28;20200;-68
2022/03/18 03:57:18;;;;;;;2.17;1.83;;;;;;;;;;5068067;28;20205;-68
2022/03/18 03:59:48;;;;;;;2.40;1.63;;;;;;;;;;5070281;28;20210;-68
2022/03/18 04:02:20;;;;;;;3.57;1.97;;;;;;;;;;5074257;28;20198;-68
2022/03/18 04:04:50;;;;;;;2.20;1.60;;;;;;;;;;5068677;28;20620;-69
2022/03/18 04:07:21;;;;;;;2.80;1.63;;;;;;;;;;5061872;28;20198;-68
2022/03/18 04:09:53;;;;;;;3.00;1.97;;;;;;;;;;5082207;28;20201;-69
2022/03/18 04:12:21;;;;;;;2.93;1.80;;;;;;;;;;5074769;28;20447;-68
2022/03/18 04:14:51;;;;;;;2.33;1.67;;;;;;;;;;5057522;28;20197;-68
2022/03/18 04:17:22;;;;;;;2.13;1.70;;;;;;;;;;5075079;28;20694;-68
2022/03/18 04:19:55;;;;;;;2.90;1.90;;;;;;;;;;5079579;28;20616;-68
2022/03/18 04:22:26;;;;;;;2.03;1.80;;;;;;;;;;5054216;28;20214;-68
2022/03/18 04:24:57;;;;;;;1.87;1.70;;;;;;;;;;5064202;28;20200;-69
2022/03/18 04:27:29;;;;;;;2.73;2.07;;;;;;;;;;5066558;28;20270;-68
2022/03/18 04:30:00;;;;;;;2.77;2.03;;;;;;;;;;5065124;28;20197;-67
2022/03/18 04:32:32;;;;;;;1.90;1.60;;;;;;;;;;5064149;28;20209;-69
2022/03/18 04:35:03;;;;;;;1.77;1.67;;;;;;;;;;5073171;28;20198;-67
2022/03/18 04:37:34;;;;;;;2.30;1.70;;;;;;;;;;5059702;28;20197;-67
2022/03/18 04:40:05;;;;;;;1.83;1.50;;;;;;;;;;5067905;28;20288;-68
2022/03/18 04:42:44;;;;;;;3.50;1.70;;;;;;;;;;5062550;28;20230;-68
2022/03/18 04:45:16;;;;;;;3.20;1.70;;;;;;;;;;5057090;28;20624;-68
2022/03/18 04:47:46;;;;;;;2.50;1.53;;;;;;;;;;5055335;28;20220;-67
2022/03/18 04:50:18;;;;;;;3.13;1.50;;;;;;;;;;5064211;28;20595;-68
2022/03/18 04:52:48;;;;;;;1.70;1.43;;;;;;;;;;5075839;28;20236;-69
2022/03/18 04:55:18;;;;;;;2.93;2.03;;;;;;;;;;5080116;28;20805;-68
2022/03/18 04:57:49;;;;;;;2.37;1.93;;;;;;;;;;5068027;28;20209;-67
2022/03/18 05:00:20;;;;;;;2.80;1.83;;;;;;;;;;5075776;28;20204;-68
2022/03/18 05:03:03;;;;;;;2.20;2.00;;;;;;;;;;5066830;28;20233;-68
2022/03/18 05:05:33;;;;;;;2.13;1.50;;;;;;;;;;5063977;28;20621;-68
2022/03/18 05:08:02;;;;;;;2.00;1.80;;;;;;;;;;5087082;28;20246;-67
2022/03/18 05:10:32;;;;;;;2.90;1.50;;;;;;;;;;5083098;28;20213;-66
2022/03/18 05:13:01;;;;;;;2.03;1.70;;;;;;;;;;5063089;28;20227;-68
2022/03/18 05:15:32;;;;;;;2.70;1.77;;;;;;;;;;5061519;28;20202;-67
2022/03/18 05:18:04;;;;;;;2.10;1.50;;;;;;;;;;5067238;28;20208;-68
2022/03/18 05:20:34;;;;;;;1.87;1.40;;;;;;;;;;5081187;28;20201;-68
2022/03/18 05:23:06;;;;;;;2.73;1.67;;;;;;;;;;5069340;28;20209;-68
2022/03/18 05:25:36;;;;;;;1.97;1.50;;;;;;;;;;5048281;28;20224;-67
2022/03/18 05:28:09;;;;;;;2.53;2.00;;;;;;;;;;5067002;28;20189;-68
2022/03/18 05:33:40;;;;;;;2.03;1.50;;;;;;;;;;5059798;28;20549;-66
2022/03/18 05:36:10;;;;;;;2.30;1.60;;;;;;;;;;5049145;28;20788;-69
2022/03/18 05:38:41;;;;;;;1.70;1.37;;;;;;;;;;5062382;28;20200;-69
2022/03/18 05:41:11;;;;;;;1.93;1.73;;;;;;;;;;5067155;28;20221;-69
2022/03/18 05:43:42;;;;;;;1.80;1.60;;;;;;;;;;5067738;28;20222;-69
2022/03/18 05:46:13;;;;;;;2.33;1.70;;;;;;;;;;5050364;28;20910;-69
2022/03/18 05:48:46;;;;;;;2.00;1.30;;;;;;;;;;5059010;28;20194;-68
2022/03/18 05:51:17;;;;;;;2.03;1.63;;;;;;;;;;5073992;28;20198;-69
2022/03/18 05:53:50;;;;;;;2.13;1.90;;;;;;;;;;5049482;28;20214;-68
2022/03/18 05:59:10;;;;;;;1.73;1.50;;;;;;;;;;5063708;28;20214;-69
2022/03/18 06:01:41;;;;;;;4.03;1.80;;;;;;;;;;5066182;28;20208;-69
2022/03/18 06:04:11;;;;;;;1.60;1.50;;;;;;;;;;5064033;28;20567;-69
2022/03/18 06:06:42;;;;;;;2.43;1.70;;;;;;;;;;5046390;28;20467;-68
2022/03/18 06:12:01;;;;;;;2.43;1.60;;;;;;;;;;5053542;28;20663;-68
2022/03/18 06:14:31;;;;;;;2.73;1.80;;;;;;;;;;5067635;28;20222;-68
2022/03/18 06:17:07;;;;;;;4.73;1.63;;;;;;;;;;5069671;28;20189;-69
2022/03/18 06:19:39;;;;;;;1.87;1.30;;;;;;;;;;5052294;28;20206;-69
2022/03/18 06:22:11;;;;;;;4.00;1.73;;;;;;;;;;5070108;28;20193;-69
2022/03/18 06:24:46;;;;;;;3.03;1.77;;;;;;;;;;5064003;28;20210;-69
2022/03/18 06:27:15;;;;;;;2.77;1.60;;;;;;;;;;5069356;28;20755;-67
2022/03/18 06:29:47;;;;;;;4.80;2.07;;;;;;;;;;5068730;28;20598;-68
2022/03/18 06:32:19;;;;;;;3.40;1.70;;;;;;;;;;5065275;28;20252;-69
2022/03/18 06:34:47;;;;;;;2.63;1.93;;;;;;;;;;5064567;28;20249;-69
2022/03/18 06:37:17;;;;;;;2.27;1.80;;;;;;;;;;5068970;28;20551;-67
2022/03/18 06:39:46;;;;;;;3.03;2.03;;;;;;;;;;5044914;28;20244;-69
2022/03/18 06:42:17;;;;;;;4.97;2.23;;;;;;;;;;5065217;28;20210;-69
2022/03/18 06:44:52;;;;;;;3.77;1.53;;;;;;;;;;5068772;28;20206;-69
2022/03/18 06:47:21;;;;;;;2.97;1.90;;;;;;;;;;5062936;28;20213;-69
2022/03/18 06:49:53;;;;;;;3.70;1.97;;;;;;;;;;5063779;28;20182;-69
2022/03/18 06:52:25;;;;;;;5.53;2.50;;;;;;;;;;5066556;28;20271;-68
2022/03/18 06:54:56;;;;;;;3.43;2.37;;;;;;;;;;5065943;28;20217;-69
2022/03/18 06:57:25;;;;;;;3.50;1.97;;;;;;;;;;5066819;28;20201;-68
2022/03/18 06:59:55;;;;;;;3.77;2.40;;;;;;;;;;5064798;28;20209;-67
2022/03/18 07:02:26;;;;;;;2.20;1.93;;;;;;;;;;5062857;28;20190;-68
2022/03/18 07:04:58;;;;;;;2.57;2.10;;;;;;;;;;5072549;28;20205;-68
2022/03/18 07:07:28;;;;;;;4.13;1.97;;;;;;;;;;5069636;28;20201;-69
2022/03/18 07:10:15;;;;;;;4.27;2.03;;;;;;;;;;5068846;28;20197;-68
2022/03/18 07:12:44;;;;;;;3.77;2.03;;;;;;;;;;5062641;28;20213;-68
2022/03/18 07:15:16;;;;;;;3.20;1.73;;;;;;;;;;5078212;28;20213;-69
2022/03/18 07:18:01;;;;;;;2.87;2.00;;;;;;;;;;5068663;28;20259;-69
2022/03/18 07:20:38;;;;;;;4.63;2.23;;;;;;;;;;5058477;28;20189;-68
2022/03/18 07:23:14;;;;;;;3.00;1.87;;;;;;;;;;5063542;28;20205;-68
2022/03/18 07:25:50;;;;;;;2.10;1.87;;;;;;;;;;5067405;28;20552;-68
2022/03/18 07:28:26;;;;;;;2.50;1.60;;;;;;;;;;5059791;28;20678;-68
2022/03/18 07:30:58;;;;;;;3.00;1.80;;;;;;;;;;5069202;28;20197;-69
2022/03/18 07:33:30;;;;;;;2.37;2.00;;;;;;;;;;5067405;28;20290;-69
2022/03/18 07:36:03;;;;;;;3.47;2.90;;;;;;;;;;5055743;28;20228;-68
2022/03/18 07:38:35;;;;;;;2.77;2.00;;;;;;;;;;5061336;28;20251;-68
2022/03/18 07:41:07;;;;;;;3.20;2.00;;;;;;;;;;5060191;28;20226;-69
2022/03/18 07:43:51;;;;;;;3.60;2.00;;;;;;;;;;5051209;28;20221;-68
2022/03/18 07:46:18;;;;;;;3.23;2.10;;;;;;;;;;5066015;28;20216;-69
2022/03/18 07:48:47;;;;;;;2.07;1.87;;;;;;;;;;5058585;28;20232;-69
2022/03/18 07:51:19;;;;;;;5.00;2.33;;;;;;;;;;5065860;28;20573;-69
2022/03/18 07:53:48;;;;;;;2.77;2.00;;;;;;;;;;5062212;28;20210;-69
2022/03/18 07:56:20;;;;;;;4.80;2.17;;;;;;;;;;5069184;28;20217;-68
2022/03/18 07:58:54;;;;;;;3.03;2.03;;;;;;;;;;5061850;28;20190;-69
2022/03/18 08:01:30;;;;;;;11.80;3.90;;;;;;;;;;5064998;28;20209;-69
2022/03/18 08:04:03;;;;;;;97.50;21.17;;;;;;;;;;5066229;28;20297;-68
2022/03/18 08:06:33;;;;;;;69.87;16.07;;;;;;;;;;5071601;28;20211;-67
2022/03/18 08:09:01;;;;;;;58.23;13.03;;;;;;;;;;5076221;28;20625;-68
2022/03/18 08:11:32;;;;;;;45.20;11.07;;;;;;;;;;5041546;28;20266;-68
2022/03/18 08:14:03;;;;;;;39.97;9.57;;;;;;;;;;5051849;28;20273;-68
2022/03/18 08:16:35;;;;;;;34.23;9.20;;;;;;;;;;5073128;28;20267;-67
2022/03/18 08:19:06;;;;;;;21.20;7.40;;;;;;;;;;5074180;28;20205;-68
2022/03/18 08:21:39;;;;;;;25.97;7.63;;;;;;;;;;5055056;28;20221;-68
2022/03/18 08:24:11;;;;;;;23.60;6.37;;;;;;;;;;5062122;28;20213;-68
2022/03/18 08:26:39;;;;;;;21.97;6.13;;;;;;;;;;5067970;28;20221;-67
2022/03/18 08:29:10;;;;;;;13.23;5.20;;;;;;;;;;5075788;28;20201;-67
2022/03/18 08:31:39;;;;;;;21.57;5.30;;;;;;;;;;5077255;28;20630;-68
2022/03/18 08:34:10;;;;;;;14.17;4.37;;;;;;;;;;5074164;28;20784;-67
2022/03/18 08:36:38;;;;;;;13.23;4.80;;;;;;;;;;5072364;28;20202;-69
2022/03/18 08:39:08;;;;;;;12.50;4.50;;;;;;;;;;5075451;28;20193;-67
2022/03/18 08:41:40;;;;;;;9.60;3.90;;;;;;;;;;5071316;28;20228;-67
2022/03/18 08:44:19;;;;;;;11.07;3.47;;;;;;;;;;5072338;28;20197;-68
2022/03/18 08:46:49;;;;;;;8.03;3.70;;;;;;;;;;5069875;28;20217;-68
2022/03/18 08:49:16;;;;;;;8.27;3.67;;;;;;;;;;5071425;28;20673;-71
2022/03/18 08:51:46;;;;;;;10.50;3.33;;;;;;;;;;5070184;28;20259;-71
2022/03/18 08:54:21;;;;;;;6.57;3.00;;;;;;;;;;5074327;28;20308;-68
2022/03/18 08:56:53;;;;;;;6.03;2.70;;;;;;;;;;5075714;28;20201;-70
2022/03/18 08:59:25;;;;;;;6.07;3.10;;;;;;;;;;5069804;28;20600;-69
2022/03/18 09:01:57;;;;;;;5.23;2.40;;;;;;;;;;5070532;28;20193;-68
2022/03/18 09:04:42;;;;;;;4.07;2.33;;;;;;;;;;5071861;28;20198;-68
2022/03/18 09:07:19;;;;;;;7.53;3.27;;;;;;;;;;5064290;28;20198;-68
2022/03/18 09:09:51;;;;;;;4.00;2.10;;;;;;;;;;5063619;28;20201;-68
2022/03/18 09:12:20;;;;;;;5.93;2.40;;;;;;;;;;5051406;28;20205;-69
2022/03/18 09:14:49;;;;;;;3.43;2.00;;;;;;;;;;5070953;28;20213;-68
2022/03/18 09:17:21;;;;;;;5.33;2.47;;;;;;;;;;5073992;28;20201;-68
2022/03/18 09:19:53;;;;;;;3.70;1.93;;;;;;;;;;5049151;28;20192;-68
2022/03/18 09:22:23;;;;;;;4.77;2.37;;;;;;;;;;5083445;28;21405;-68
2022/03/18 09:24:52;;;;;;;4.30;2.40;;;;;;;;;;5067801;28;20213;-69
2022/03/18 09:27:21;;;;;;;4.83;2.50;;;;;;;;;;5049639;28;20204;-68
2022/03/18 09:29:53;;;;;;;3.10;1.90;;;;;;;;;;5070743;28;20197;-69
2022/03/18 09:32:30;;;;;;;3.60;1.80;;;;;;;;;;5057239;28;20197;-70
2022/03/18 09:35:02;;;;;;;4.17;2.10;;;;;;;;;;5041855;28;20260;-70
2022/03/18 09:37:32;;;;;;;2.93;1.80;;;;;;;;;;5059570;28;20662;-71
2022/03/18 09:40:05;;;;;;;4.93;2.17;;;;;;;;;;5074245;28;20286;-71
2022/03/18 09:43:06;;;;;;;3.63;2.27;;;;;;;;;;5070915;28;20238;-70
2022/03/18 09:45:40;;;;;;;2.40;1.70;;;;;;;;;;5070915;28;20190;-70
2022/03/18 09:48:18;;;;;;;4.37;1.77;;;;;;;;;;5069564;28;20225;-70
2022/03/18 09:50:51;;;;;;;3.40;1.97;;;;;;;;;;5075632;28;20746;-71
2022/03/18 09:53:21;;;;;;;3.73;1.83;;;;;;;;;;5062925;28;20985;-71
2022/03/18 09:55:54;;;;;;;4.43;1.80;;;;;;;;;;5076560;28;20702;-72
2022/03/18 09:58:24;;;;;;;3.73;1.70;;;;;;;;;;5071797;28;20194;-72
2022/03/18 10:00:58;;;;;;;3.50;1.57;;;;;;;;;;5074046;28;20206;-71
2022/03/18 10:03:54;;;;;;;2.00;1.47;;;;;;;;;;5053728;28;20209;-71
2022/03/18 10:06:29;;;;;;;2.90;1.70;;;;;;;;;;5073587;28;20210;-71
2022/03/18 10:08:59;;;;;;;2.30;1.33;;;;;;;;;;5080264;28;20639;-71
2022/03/18 10:11:36;;;;;;;3.10;1.67;;;;;;;;;;5076804;28;20213;-72
2022/03/18 10:14:09;;;;;;;4.93;1.70;;;;;;;;;;5075269;28;20209;-67
2022/03/18 10:16:42;;;;;;;3.37;1.80;;;;;;;;;;5079147;28;20654;-69
2022/03/18 10:19:21;;;;;;;3.00;1.77;;;;;;;;;;5077674;28;20240;-66
2022/03/18 10:21:57;;;;;;;2.60;1.60;;;;;;;;;;5076811;28;20197;-66
2022/03/18 10:24:37;;;;;;;3.77;1.80;;;;;;;;;;5069392;28;20212;-68
2022/03/18 10:27:29;;;;;;;4.47;1.43;;;;;;;;;;5076678;28;20216;-71
2022/03/18 10:29:57;;;;;;;3.13;1.30;;;;;;;;;;5077591;28;20608;-68
2022/03/18 10:32:31;;;;;;;2.70;1.30;;;;;;;;;;5053857;28;20228;-69
2022/03/18 10:37:56;;;;;;;6.77;1.77;;;;;;;;;;5078889;28;20536;-68
2022/03/18 10:40:35;;;;;;;6.77;2.00;;;;;;;;;;5075542;28;20233;-68
2022/03/18 10:43:08;;;;;;;14.60;2.33;;;;;;;;;;5092032;28;20221;-68
2022/03/18 10:45:43;;;;;;;8.77;2.73;;;;;;;;;;5062090;28;20194;-67
2022/03/18 10:48:20;;;;;;;14.20;2.80;;;;;;;;;;5070160;28;20206;-67
2022/03/18 10:51:02;;;;;;;14.33;3.07;;;;;;;;;;5074223;28;20212;-67
2022/03/18 10:53:30;;;;;;;10.70;2.17;;;;;;;;;;5067636;28;20228;-69
2022/03/18 10:56:05;;;;;;;13.77;2.20;;;;;;;;;;5073660;28;20753;-68
2022/03/18 10:58:38;;;;;;;10.20;2.10;;;;;;;;;;5070605;28;20202;-69
2022/03/18 11:01:12;;;;;;;9.40;2.70;;;;;;;;;;5093490;28;20200;-65
2022/03/18 11:03:45;;;;;;;10.00;2.10;;;;;;;;;;5072887;28;20276;-68
2022/03/18 11:06:19;;;;;;;6.80;2.40;;;;;;;;;;5064130;28;20215;-68
2022/03/18 11:08:52;;;;;;;11.23;2.37;;;;;;;;;;5077103;28;20549;-69
2022/03/18 11:11:31;;;;;;;8.47;2.83;;;;;;;;;;5051126;28;20220;-70
2022/03/18 11:14:20;;;;;;;13.87;2.47;;;;;;;;;;5077023;28;20237;-69
2022/03/18 11:16:49;;;;;;;12.07;2.80;;;;;;;;;;5077948;28;20233;-68
2022/03/18 11:19:22;;;;;;;13.93;2.73;;;;;;;;;;5047425;28;20197;-68
2022/03/18 11:21:55;;;;;;;10.17;2.13;;;;;;;;;;5059796;28;20207;-69
2022/03/18 11:24:30;;;;;;;8.73;1.80;;;;;;;;;;5065546;28;20213;-70
2022/03/18 11:27:08;;;;;;;9.50;2.17;;;;;;;;;;5079301;28;20254;-68
2022/03/18 11:29:38;;;;;;;6.40;1.70;;;;;;;;;;5076606;28;20626;-69
2022/03/18 11:32:16;;;;;;;11.20;2.40;;;;;;;;;;5070031;28;20204;-69
2022/03/18 11:35:01;;;;;;;6.97;1.97;;;;;;;;;;5075474;28;20233;-69
2022/03/18 11:37:33;;;;;;;9.57;2.00;;;;;;;;;;5071703;28;20262;-68
2022/03/18 11:40:17;;;;;;;7.00;2.17;;;;;;;;;;5077346;28;20232;-68
2022/03/18 11:42:48;;;;;;;10.43;2.17;;;;;;;;;;5075418;28;20205;-68
2022/03/18 11:45:37;;;;;;;8.47;2.00;;;;;;;;;;5061808;28;20204;-68
2022/03/18 11:48:28;;;;;;;5.70;1.83;;;;;;;;;;5064625;28;20197;-66
2022/03/18 11:51:02;;;;;;;6.47;1.80;;;;;;;;;;5078411;28;20626;-65
2022/03/18 11:53:59;;;;;;;7.87;2.03;;;;;;;;;;5071283;28;20232;-65
2022/03/18 11:56:44;;;;;;;6.20;1.83;;;;;;;;;;5064441;28;20220;-71
2022/03/18 11:59:47;;;;;;;5.47;1.60;;;;;;;;;;5062172;28;20657;-71
2022/03/18 12:02:20;;;;;;;5.37;2.17;;;;;;;;;;5071140;28;20185;-70
2022/03/18 12:04:54;;;;;;;5.03;1.97;;;;;;;;;;5076604;28;20193;-68
2022/03/18 12:07:45;;;;;;;4.27;1.40;;;;;;;;;;5061733;28;20208;-70
2022/03/18 12:10:18;;;;;;;7.37;1.57;;;;;;;;;;5073452;28;20228;-66
2022/03/18 12:12:49;;;;;;;4.10;1.30;;;;;;;;;;5052919;28;20208;-67
2022/03/18 12:15:22;;;;;;;3.20;1.03;;;;;;;;;;5065051;28;20224;-66
2022/03/18 12:17:53;;;;;;;3.87;1.13;;;;;;;;;;5056688;28;20193;-66
2022/03/18 12:20:29;;;;;;;4.43;1.40;;;;;;;;;;5046332;28;20694;-66
2022/03/18 12:23:01;;;;;;;2.93;1.07;;;;;;;;;;5049550;28;20213;-68
2022/03/18 12:25:40;;;;;;;8.00;1.00;;;;;;;;;;5069717;28;20212;-69
2022/03/18 12:28:15;;;;;;;4.57;1.70;;;;;;;;;;5070022;28;20209;-71
2022/03/18 12:30:46;;;;;;;4.97;1.20;;;;;;;;;;5071424;28;20209;-70
2022/03/18 12:33:21;;;;;;;1.30;0.90;;;;;;;;;;5077944;28;20539;-69
2022/03/18 12:35:50;;;;;;;1.60;1.10;;;;;;;;;;5070646;28;20252;-68
2022/03/18 12:38:21;;;;;;;2.27;1.20;;;;;;;;;;5071109;28;20267;-69
2022/03/18 12:40:57;;;;;;;3.93;0.80;;;;;;;;;;5075175;28;20295;-67
2022/03/18 12:43:31;;;;;;;1.73;0.90;;;;;;;;;;5068572;28;20221;-65
2022/03/18 12:46:03;;;;;;;20.17;1.50;;;;;;;;;;5057364;28;20224;-68
2022/03/18 12:48:32;;;;;;;7.47;1.07;;;;;;;;;;5055771;28;20205;-68
2022/03/18 12:51:03;;;;;;;3.17;1.00;;;;;;;;;;5075131;28;20195;-67
2022/03/18 12:53:35;;;;;;;1.93;0.83;;;;;;;;;;5067410;28;20194;-67
2022/03/18 12:56:07;;;;;;;4.40;1.03;;;;;;;;;;5068635;28;20309;-68
2022/03/18 12:58:41;;;;;;;2.13;1.07;;;;;;;;;;5064809;28;20650;-67
2022/03/18 13:01:50;;;;;;;3.77;1.07;;;;;;;;;;5040877;28;20196;-66
2022/03/18 13:04:21;;;;;;;4.27;1.33;;;;;;;;;;5085557;28;20225;-66
2022/03/18 13:07:01;;;;;;;2.03;0.83;;;;;;;;;;5055169;28;20228;-69
2022/03/18 13:09:59;;;;;;;1.60;0.90;;;;;;;;;;5060435;28;20322;-70
2022/03/18 13:12:38;;;;;;;2.13;0.93;;;;;;;;;;5066794;28;20219;-68
2022/03/18 13:15:15;;;;;;;2.00;0.80;;;;;;;;;;5067998;28;20221;-68
2022/03/18 13:17:48;;;;;;;1.70;0.90;;;;;;;;;;5067806;28;20305;-68
2022/03/18 13:20:28;;;;;;;2.40;0.90;;;;;;;;;;5053591;28;20205;-67
2022/03/18 13:23:02;;;;;;;2.23;0.80;;;;;;;;;;5064671;28;20210;-68
2022/03/18 13:25:40;;;;;;;1.43;0.67;;;;;;;;;;5078944;28;20196;-70
2022/03/18 13:28:14;;;;;;;2.40;1.20;;;;;;;;;;5076200;28;20206;-70
2022/03/18 13:33:52;;;;;;;1.87;1.00;;;;;;;;;;5078536;28;20208;-66
2022/03/18 13:36:37;;;;;;;1.27;0.70;;;;;;;;;;5068751;28;20654;-67
2022/03/18 13:39:13;;;;;;;2.53;0.90;;;;;;;;;;5073029;28;20649;-66
2022/03/18 13:41:53;;;;;;;1.87;0.90;;;;;;;;;;5044342;28;20202;-66
2022/03/18 13:44:28;;;;;;;1.80;0.87;;;;;;;;;;5025291;28;20565;-65
2022/03/18 13:47:06;;;;;;;3.43;1.13;;;;;;;;;;5055423;28;20776;-67
2022/03/18 13:49:38;;;;;;;1.20;0.73;;;;;;;;;;5060113;28;20201;-66
2022/03/18 13:52:12;;;;;;;1.77;0.83;;;;;;;;;;5053290;28;20206;-67
2022/03/18 13:54:50;;;;;;;1.13;0.57;;;;;;;;;;5055189;28;20206;-67
2022/03/18 13:57:17;;;;;;;2.30;0.93;;;;;;;;;;5038872;28;20745;-64
2022/03/18 13:59:57;;;;;;;1.83;0.80;;;;;;;;;;5052805;28;20214;-65
2022/03/18 14:02:34;;;;;;;1.03;0.90;;;;;;;;;;5050382;28;20667;-65
2022/03/18 14:05:10;;;;;;;2.33;1.00;;;;;;;;;;5054774;28;20544;-65
2022/03/18 14:08:00;;;;;;;2.40;0.90;;;;;;;;;;5054411;28;20209;-65
2022/03/18 14:10:42;;;;;;;1.70;1.00;;;;;;;;;;5040191;28;20200;-68
2022/03/18 14:13:15;;;;;;;2.90;0.97;;;;;;;;;;5052575;28;20205;-68
2022/03/18 14:15:49;;;;;;;1.47;0.87;;;;;;;;;;5054014;28;20213;-66
2022/03/18 14:18:24;;;;;;;3.13;1.17;;;;;;;;;;5058199;28;20198;-67
2022/03/18 14:20:59;;;;;;;2.03;1.20;;;;;;;;;;5039202;28;20202;-67
2022/03/18 14:23:28;;;;;;;2.83;0.73;;;;;;;;;;5046185;28;20216;-67
2022/03/18 14:25:58;;;;;;;4.17;0.90;;;;;;;;;;5050766;28;20220;-66
2022/03/18 14:28:31;;;;;;;1.33;0.70;;;;;;;;;;5054408;28;20198;-68
2022/03/18 14:31:08;;;;;;;4.37;1.30;;;;;;;;;;5056425;28;20204;-68
2022/03/18 14:33:40;;;;;;;3.60;0.90;;;;;;;;;;5039148;28;20283;-68
2022/03/18 14:36:13;;;;;;;1.90;0.73;;;;;;;;;;5049959;28;20234;-68
2022/03/18 14:38:46;;;;;;;1.13;0.80;;;;;;;;;;5048783;28;20289;-68
2022/03/18 14:41:34;;;;;;;2.10;1.10;;;;;;;;;;5093727;28;20251;-70
2022/03/18 14:44:05;;;;;;;3.03;1.07;;;;;;;;;;5096482;28;20222;-70
2022/03/18 14:46:37;;;;;;;1.13;0.93;;;;;;;;;;5098008;28;20215;-67
2022/03/18 14:49:07;;;;;;;1.33;0.70;;;;;;;;;;5098717;28;20574;-67
2022/03/18 14:51:39;;;;;;;1.50;0.90;;;;;;;;;;5098980;28;20200;-68
2022/03/18 14:54:09;;;;;;;9.70;0.90;;;;;;;;;;5094506;28;20193;-66
2022/03/18 14:56:39;;;;;;;2.03;1.00;;;;;;;;;;5092863;28;20800;-64
2022/03/18 14:59:13;;;;;;;2.23;0.90;;;;;;;;;;5090073;28;20217;-66
2022/03/18 15:01:55;;;;;;;2.27;0.90;;;;;;;;;;5093155;28;20225;-68
2022/03/18 15:04:26;;;;;;;3.47;0.87;;;;;;;;;;5094969;28;20198;-68
2022/03/18 15:06:58;;;;;;;2.33;0.90;;;;;;;;;;5094984;28;20284;-67
2022/03/18 15:09:36;;;;;;;3.17;0.80;;;;;;;;;;5096965;28;20245;-66
2022/03/18 15:12:04;;;;;;;2.00;0.80;;;;;;;;;;5058116;28;20244;-67
2022/03/18 15:14:39;;;;;;;1.70;0.87;;;;;;;;;;5091909;28;20204;-67
2022/03/18 15:17:07;;;;;;;3.23;0.90;;;;;;;;;;5095598;28;20238;-66
2022/03/18 15:19:40;;;;;;;2.57;0.80;;;;;;;;;;5098778;28;20196;-67
2022/03/18 15:22:12;;;;;;;1.93;0.70;;;;;;;;;;5096881;28;20225;-67
2022/03/18 15:24:45;;;;;;;1.10;0.67;;;;;;;;;;5092974;28;20668;-68
2022/03/18 15:27:18;;;;;;;2.53;0.83;;;;;;;;;;5090190;28;20188;-65
2022/03/18 15:29:47;;;;;;;3.40;0.93;;;;;;;;;;5076455;28;20205;-65
2022/03/18 15:32:20;;;;;;;3.23;0.77;;;;;;;;;;5093932;28;20211;-66
2022/03/18 15:34:49;;;;;;;2.23;0.60;;;;;;;;;;5091638;28;20214;-69
2022/03/18 15:37:22;;;;;;;0.83;0.50;;;;;;;;;;5090557;28;20318;-67
2022/03/18 15:39:54;;;;;;;1.00;0.70;;;;;;;;;;5087684;28;20248;-67